Time;durP1;ratioP1;P1;durP2;ratioP2;P2;SDS_P1;SDS_P2;PMS_P1;PMS_P2;Temp;Humidity;BMP_temperature;BMP_pressure;BME280_temperature;BME280_humidity;BME280_pressure;Samples;Min_cycle;Max_cycle;Signal;HPM_P1;HPM_P2
2021/06/08 00:02:18;;;;;;;2.20;0.80;;;17.70;59.50;;;;;;4689716;30;20419;-70
2021/06/08 00:04:45;;;;;;;1.50;0.60;;;17.70;59.60;;;;;;4686086;30;20066;-70
2021/06/08 00:07:12;;;;;;;2.35;0.70;;;17.60;59.70;;;;;;4690310;30;20077;-70
2021/06/08 00:09:40;;;;;;;3.92;0.80;;;17.60;59.80;;;;;;4677780;30;20404;-69
2021/06/08 00:12:07;;;;;;;1.92;0.70;;;17.50;59.90;;;;;;4679484;30;20404;-70
2021/06/08 00:14:34;;;;;;;2.03;0.88;;;17.50;60.00;;;;;;4678603;30;20050;-69
2021/06/08 00:17:01;;;;;;;1.85;0.80;;;17.50;60.10;;;;;;4663973;30;20061;-69
2021/06/08 00:19:29;;;;;;;1.85;1.00;;;17.50;60.30;;;;;;4666004;30;20504;-70
2021/06/08 00:21:55;;;;;;;1.60;0.82;;;17.40;60.30;;;;;;4693432;30;20053;-69
2021/06/08 00:24:22;;;;;;;2.53;0.70;;;17.40;60.40;;;;;;4690738;30;20046;-70
2021/06/08 00:26:49;;;;;;;2.42;1.10;;;17.30;60.50;;;;;;4679066;30;20495;-70
2021/06/08 00:29:17;;;;;;;3.35;1.17;;;17.30;60.60;;;;;;4692830;30;20051;-70
2021/06/08 00:31:44;;;;;;;1.92;0.85;;;17.30;60.70;;;;;;4692843;30;20432;-70
2021/06/08 00:34:11;;;;;;;3.08;1.08;;;17.30;60.80;;;;;;4662028;30;20060;-70
2021/06/08 00:36:38;;;;;;;2.97;1.40;;;17.30;61.00;;;;;;4677225;30;20053;-70
2021/06/08 00:39:05;;;;;;;1.85;1.08;;;17.20;61.00;;;;;;4678779;30;20483;-69
2021/06/08 00:41:39;;;;;;;2.45;1.08;;;17.20;61.20;;;;;;4686825;30;20050;-70
2021/06/08 00:44:07;;;;;;;2.00;1.23;;;17.10;61.40;;;;;;4693550;30;20405;-69
2021/06/08 00:46:34;;;;;;;3.40;1.25;;;17.10;61.60;;;;;;4666792;30;20439;-69
2021/06/08 00:49:02;;;;;;;3.50;1.40;;;17.00;61.60;;;;;;4677422;30;20053;-70
2021/06/08 00:51:29;;;;;;;2.58;1.23;;;17.00;61.80;;;;;;4693240;30;20081;-69
2021/06/08 00:53:59;;;;;;;2.55;1.50;;;16.90;61.90;;;;;;4693284;30;20050;-70
2021/06/08 00:56:25;;;;;;;3.25;1.65;;;17.00;62.10;;;;;;4691494;30;20404;-70
2021/06/08 00:58:53;;;;;;;2.28;1.30;;;16.90;62.80;;;;;;4675639;30;20458;-70
2021/06/08 01:01:19;;;;;;;2.67;1.25;;;16.90;62.30;;;;;;4679483;30;20052;-70
2021/06/08 01:03:47;;;;;;;3.17;1.83;;;16.80;62.30;;;;;;4678826;30;20137;-70
2021/06/08 01:06:14;;;;;;;3.35;1.45;;;16.80;62.40;;;;;;4679567;30;20049;-70
2021/06/08 01:08:40;;;;;;;2.45;1.40;;;16.80;62.60;;;;;;4675555;30;20408;-70
2021/06/08 01:11:08;;;;;;;2.60;1.30;;;16.80;62.70;;;;;;4691909;30;20045;-70
2021/06/08 01:13:35;;;;;;;4.43;1.30;;;16.70;62.90;;;;;;4691618;30;20092;-70
2021/06/08 01:16:02;;;;;;;2.33;1.40;;;16.70;62.90;;;;;;4692598;30;20139;-69
2021/06/08 01:18:29;;;;;;;4.10;1.27;;;16.70;63.10;;;;;;4676479;30;20144;-70
2021/06/08 01:21:09;;;;;;;2.17;1.50;;;16.70;63.10;;;;;;4694095;30;20176;-70
2021/06/08 01:23:38;;;;;;;3.33;1.30;;;16.70;63.20;;;;;;4691385;30;20054;-69
2021/06/08 01:26:06;;;;;;;1.85;1.10;;;16.60;63.30;;;;;;4692009;30;20073;-70
2021/06/08 01:28:35;;;;;;;2.90;1.25;;;16.60;63.40;;;;;;4691290;30;20396;-69
2021/06/08 01:31:07;;;;;;;3.13;1.60;;;16.60;63.60;;;;;;4691077;30;20124;-69
2021/06/08 01:33:39;;;;;;;4.60;2.08;;;16.50;63.70;;;;;;4689645;30;20073;-69
2021/06/08 01:36:11;;;;;;;3.78;1.80;;;16.50;63.80;;;;;;4692155;30;20077;-69
2021/06/08 01:38:40;;;;;;;3.25;1.90;;;16.50;64.00;;;;;;4690798;30;20045;-70
2021/06/08 01:41:10;;;;;;;3.03;1.52;;;16.40;64.00;;;;;;4679846;30;20129;-69
2021/06/08 01:43:40;;;;;;;3.83;1.70;;;16.40;64.10;;;;;;4691840;30;20064;-69
2021/06/08 01:46:08;;;;;;;3.40;2.00;;;16.40;64.20;;;;;;4690655;30;20151;-69
2021/06/08 01:48:36;;;;;;;3.88;1.88;;;16.40;64.30;;;;;;4691384;30;20107;-69
2021/06/08 01:51:19;;;;;;;3.22;1.95;;;16.30;64.40;;;;;;4676866;30;20145;-69
2021/06/08 01:53:50;;;;;;;2.45;1.50;;;16.40;64.40;;;;;;4691932;30;20056;-69
2021/06/08 01:56:22;;;;;;;2.45;1.70;;;16.30;64.60;;;;;;4691367;30;20399;-70
2021/06/08 01:59:01;;;;;;;2.90;1.60;;;16.30;64.60;;;;;;4689858;30;20050;-69
2021/06/08 02:01:41;;;;;;;3.60;2.00;;;16.30;64.70;;;;;;4679666;30;20316;-69
2021/06/08 02:04:18;;;;;;;3.60;1.92;;;16.30;64.80;;;;;;4691318;30;20402;-69
2021/06/08 02:07:15;;;;;;;2.95;1.90;;;16.20;64.90;;;;;;4677691;30;20459;-69
2021/06/08 02:09:54;;;;;;;4.50;2.15;;;16.20;65.00;;;;;;4682075;30;20073;-69
2021/06/08 02:12:22;;;;;;;4.47;2.00;;;16.20;65.20;;;;;;4692235;30;20120;-70
2021/06/08 02:15:01;;;;;;;3.83;2.08;;;16.10;65.20;;;;;;4696118;30;20050;-69
2021/06/08 02:17:45;;;;;;;3.22;1.92;;;16.10;65.40;;;;;;4677323;30;20049;-69
2021/06/08 02:20:25;;;;;;;3.65;1.88;;;16.10;65.50;;;;;;4691645;30;20073;-70
2021/06/08 02:23:01;;;;;;;4.03;2.22;;;16.00;65.60;;;;;;4691451;30;20062;-70
2021/06/08 02:25:31;;;;;;;3.92;2.53;;;16.00;65.80;;;;;;4690949;30;20050;-70
2021/06/08 02:28:04;;;;;;;4.13;2.13;;;15.90;65.90;;;;;;4661012;30;20061;-70
2021/06/08 02:30:32;;;;;;;4.22;2.08;;;15.90;66.00;;;;;;4676135;30;20041;-70
2021/06/08 02:33:01;;;;;;;4.43;1.95;;;15.90;66.10;;;;;;4690317;30;20053;-69
2021/06/08 02:35:29;;;;;;;3.97;2.72;;;15.80;66.20;;;;;;4689804;30;20180;-69
2021/06/08 02:37:58;;;;;;;3.95;2.83;;;15.80;66.30;;;;;;4690835;30;20038;-70
2021/06/08 02:40:26;;;;;;;5.07;2.72;;;15.80;66.50;;;;;;4679368;30;20048;-69
2021/06/08 02:42:58;;;;;;;4.50;2.78;;;15.70;66.60;;;;;;4680536;30;20062;-69
2021/06/08 02:45:27;;;;;;;4.13;2.55;;;15.70;66.80;;;;;;4675598;30;20061;-69
2021/06/08 02:47:56;;;;;;;4.20;2.42;;;15.70;66.80;;;;;;4691502;30;20065;-69
2021/06/08 02:50:24;;;;;;;5.32;2.88;;;15.70;66.90;;;;;;4678100;30;20049;-69
2021/06/08 02:52:55;;;;;;;3.83;2.38;;;15.70;67.00;;;;;;4682949;30;20046;-70
2021/06/08 02:55:24;;;;;;;3.72;2.25;;;15.70;67.10;;;;;;4689790;30;20045;-69
2021/06/08 02:57:54;;;;;;;6.55;2.97;;;15.60;67.20;;;;;;4689482;30;20590;-69
2021/06/08 03:00:22;;;;;;;5.05;2.60;;;15.60;67.30;;;;;;4691553;30;20057;-70
2021/06/08 03:02:53;;;;;;;4.70;2.55;;;15.60;67.40;;;;;;4673984;30;20205;-69
2021/06/08 03:05:31;;;;;;;4.88;2.67;;;15.60;67.50;;;;;;4688631;30;20057;-70
2021/06/08 03:08:30;;;;;;;4.57;2.58;;;15.50;67.50;;;;;;4690393;30;20135;-69
2021/06/08 03:11:02;;;;;;;4.05;2.63;;;15.50;67.50;;;;;;4690402;30;20407;-69
2021/06/08 03:13:32;;;;;;;4.45;2.67;;;15.50;67.70;;;;;;4689234;30;20042;-69
2021/06/08 03:16:01;;;;;;;4.32;2.47;;;15.50;67.70;;;;;;4691003;30;20491;-69
2021/06/08 03:18:31;;;;;;;3.83;2.60;;;15.50;67.90;;;;;;4690581;30;20114;-69
2021/06/08 03:21:01;;;;;;;4.32;2.55;;;15.50;67.90;;;;;;4675187;30;20057;-69
2021/06/08 03:23:34;;;;;;;4.20;2.72;;;15.50;68.00;;;;;;4690441;30;20994;-69
2021/06/08 03:26:05;;;;;;;6.00;2.88;;;15.50;68.10;;;;;;4690810;30;20408;-69
2021/06/08 03:28:33;;;;;;;5.60;2.83;;;15.40;68.10;;;;;;4676834;30;20835;-69
2021/06/08 03:31:01;;;;;;;3.58;2.10;;;15.40;68.20;;;;;;4662614;30;20132;-70
2021/06/08 03:33:30;;;;;;;5.07;2.50;;;15.40;68.30;;;;;;4689385;30;20141;-69
2021/06/08 03:35:58;;;;;;;3.70;2.47;;;15.40;68.30;;;;;;4674682;30;20069;-69
2021/06/08 03:38:26;;;;;;;4.30;2.55;;;15.40;68.40;;;;;;4659425;30;20133;-69
2021/06/08 03:40:55;;;;;;;3.67;2.20;;;15.30;68.40;;;;;;4691054;30;20108;-69
2021/06/08 03:43:23;;;;;;;5.20;2.83;;;15.40;68.60;;;;;;4676052;30;20054;-69
2021/06/08 03:45:51;;;;;;;3.53;2.15;;;15.30;68.70;;;;;;4681634;30;20440;-69
2021/06/08 03:48:19;;;;;;;3.97;2.40;;;15.30;68.80;;;;;;4697879;30;20092;-69
2021/06/08 03:50:50;;;;;;;5.40;2.58;;;15.30;68.90;;;;;;4691428;30;20070;-69
2021/06/08 03:53:19;;;;;;;5.30;2.90;;;15.30;68.80;;;;;;4689568;30;20061;-69
2021/06/08 03:55:52;;;;;;;7.20;2.88;;;15.30;68.90;;;;;;4689991;30;20141;-69
2021/06/08 03:58:21;;;;;;;4.88;2.88;;;15.30;68.80;;;;;;4688554;30;20096;-70
2021/06/08 04:00:55;;;;;;;5.20;3.22;;;15.30;68.90;;;;;;4676941;30;20053;-69
2021/06/08 04:03:24;;;;;;;4.47;2.60;;;15.30;68.90;;;;;;4688904;30;20063;-69
2021/06/08 04:05:54;;;;;;;4.50;2.35;;;15.30;68.90;;;;;;4689552;30;20073;-69
2021/06/08 04:08:25;;;;;;;5.43;3.00;;;15.40;68.90;;;;;;4689329;30;20152;-69
2021/06/08 04:10:52;;;;;;;4.82;2.88;;;15.40;68.90;;;;;;4689129;30;20057;-69
2021/06/08 04:13:19;;;;;;;5.25;2.50;;;15.40;69.60;;;;;;4675305;30;20132;-69
2021/06/08 04:15:49;;;;;;;4.60;2.30;;;15.40;69.00;;;;;;4673816;30;20054;-69
2021/06/08 04:18:20;;;;;;;5.65;2.90;;;15.40;69.10;;;;;;4688408;30;20053;-69
2021/06/08 04:20:48;;;;;;;5.85;3.38;;;15.30;69.20;;;;;;4674834;30;20514;-69
2021/06/08 04:23:24;;;;;;;4.22;2.55;;;15.30;69.20;;;;;;4688964;30;20041;-69
2021/06/08 04:25:51;;;;;;;4.32;3.00;;;15.30;69.30;;;;;;4689938;30;20464;-69
2021/06/08 04:28:22;;;;;;;4.10;2.53;;;15.30;69.40;;;;;;4689313;30;20141;-69
2021/06/08 04:30:50;;;;;;;4.68;2.45;;;15.40;69.40;;;;;;4689238;30;20069;-69
2021/06/08 04:33:30;;;;;;;6.60;2.85;;;15.40;69.40;;;;;;4689163;30;20129;-69
2021/06/08 04:35:57;;;;;;;5.47;2.85;;;15.40;69.40;;;;;;4689911;30;20061;-69
2021/06/08 04:38:24;;;;;;;5.40;3.55;;;15.40;69.40;;;;;;4687614;30;20085;-69
2021/06/08 04:40:52;;;;;;;4.60;2.90;;;15.50;69.40;;;;;;4661377;30;20626;-69
2021/06/08 04:43:24;;;;;;;3.72;2.17;;;15.50;69.60;;;;;;4688883;30;20061;-69
2021/06/08 04:45:52;;;;;;;4.35;2.83;;;15.60;69.30;;;;;;4684036;30;20069;-69
2021/06/08 04:48:23;;;;;;;4.38;2.58;;;15.60;69.30;;;;;;4689861;30;20384;-69
2021/06/08 04:50:52;;;;;;;3.97;2.60;;;15.60;69.20;;;;;;4689270;30;20045;-69
2021/06/08 04:53:20;;;;;;;4.75;3.03;;;15.70;69.20;;;;;;4676761;30;20108;-69
2021/06/08 04:55:47;;;;;;;4.18;2.42;;;15.70;69.10;;;;;;4692750;30;21137;-69
2021/06/08 04:58:17;;;;;;;3.13;2.05;;;15.80;69.00;;;;;;4692043;30;20127;-69
2021/06/08 05:01:03;;;;;;;4.40;2.67;;;15.90;68.90;;;;;;4693397;30;20517;-69
2021/06/08 05:03:37;;;;;;;3.50;2.13;;;15.90;68.70;;;;;;4686136;30;20628;-69
2021/06/08 05:06:09;;;;;;;4.22;2.60;;;16.00;68.60;;;;;;4676868;30;20050;-69
2021/06/08 05:08:47;;;;;;;4.03;2.47;;;16.00;68.40;;;;;;4679510;30;20530;-69
2021/06/08 05:11:20;;;;;;;3.78;2.30;;;16.10;68.30;;;;;;4691053;30;20045;-69
2021/06/08 05:13:50;;;;;;;3.53;1.77;;;16.20;68.80;;;;;;4678179;30;20046;-69
2021/06/08 05:16:18;;;;;;;3.65;1.83;;;16.30;68.10;;;;;;4692687;30;20887;-69
2021/06/08 05:18:49;;;;;;;4.65;2.00;;;16.30;67.90;;;;;;4676237;30;20178;-69
2021/06/08 05:21:18;;;;;;;4.05;2.00;;;16.40;67.70;;;;;;4692230;30;20068;-69
2021/06/08 05:23:47;;;;;;;3.13;1.58;;;16.50;67.50;;;;;;4678210;30;20057;-69
2021/06/08 05:26:15;;;;;;;5.13;1.48;;;16.60;67.30;;;;;;4691835;30;20045;-69
2021/06/08 05:28:42;;;;;;;2.83;1.60;;;16.70;67.10;;;;;;4691118;30;20132;-69
2021/06/08 05:31:09;;;;;;;2.78;1.63;;;16.80;66.90;;;;;;4692546;30;20042;-69
2021/06/08 05:33:37;;;;;;;3.88;1.48;;;16.80;66.70;;;;;;4692025;30;20061;-70
2021/06/08 05:36:04;;;;;;;3.10;1.60;;;16.90;66.50;;;;;;4681416;30;20139;-70
2021/06/08 05:38:37;;;;;;;3.38;1.42;;;17.10;66.20;;;;;;4684662;30;20561;-69
2021/06/08 05:41:12;;;;;;;2.92;1.35;;;17.20;66.70;;;;;;4695947;30;20406;-69
2021/06/08 05:43:40;;;;;;;2.40;1.20;;;17.30;65.70;;;;;;4692085;30;20076;-69
2021/06/08 05:46:09;;;;;;;2.75;1.23;;;17.40;65.50;;;;;;4692178;30;20081;-70
2021/06/08 05:48:37;;;;;;;2.22;1.35;;;17.50;65.30;;;;;;4691211;30;20053;-69
2021/06/08 05:51:06;;;;;;;3.13;1.40;;;17.60;64.90;;;;;;4678298;30;20113;-69
2021/06/08 05:53:39;;;;;;;2.05;0.90;;;17.70;64.80;;;;;;4678597;30;20042;-69
2021/06/08 05:56:08;;;;;;;1.63;0.80;;;17.80;64.40;;;;;;4692099;30;20046;-69
2021/06/08 05:58:36;;;;;;;2.58;0.80;;;17.80;64.20;;;;;;4678406;30;20068;-70
2021/06/08 06:01:05;;;;;;;1.00;0.60;;;18.00;63.90;;;;;;4690967;30;20073;-69
2021/06/08 06:03:33;;;;;;;2.85;0.75;;;18.00;63.70;;;;;;4692287;30;20057;-69
2021/06/08 06:06:03;;;;;;;2.25;0.95;;;18.10;63.50;;;;;;4675572;30;20501;-69
2021/06/08 06:08:31;;;;;;;2.03;0.60;;;18.20;63.30;;;;;;4675266;30;20111;-69
2021/06/08 06:11:00;;;;;;;1.83;0.55;;;18.30;63.20;;;;;;4690181;30;20049;-70
2021/06/08 06:13:33;;;;;;;1.08;0.68;;;18.40;63.10;;;;;;4689671;30;20422;-70
2021/06/08 06:16:01;;;;;;;2.67;0.70;;;18.50;62.90;;;;;;4687745;30;20057;-70
2021/06/08 06:18:29;;;;;;;1.98;0.50;;;18.50;62.60;;;;;;4689392;30;20096;-69
2021/06/08 06:20:56;;;;;;;0.80;0.40;;;18.70;62.50;;;;;;4677361;30;20053;-71
2021/06/08 06:23:24;;;;;;;1.10;0.50;;;18.70;62.20;;;;;;4678821;30;20088;-69
2021/06/08 06:25:53;;;;;;;0.93;0.30;;;18.80;62.00;;;;;;4674622;30;20045;-70
2021/06/08 06:28:20;;;;;;;0.82;0.30;;;18.90;61.80;;;;;;4690258;30;20053;-70
2021/06/08 06:30:48;;;;;;;1.27;0.40;;;19.00;61.60;;;;;;4690421;30;20049;-69
2021/06/08 06:33:16;;;;;;;1.23;0.47;;;19.10;61.40;;;;;;4690675;30;20056;-70
2021/06/08 06:35:43;;;;;;;0.50;0.20;;;19.20;61.20;;;;;;4674714;30;20049;-70
2021/06/08 06:38:12;;;;;;;1.25;0.30;;;19.20;60.90;;;;;;4691022;30;20136;-70
2021/06/08 06:40:40;;;;;;;2.25;0.40;;;19.30;60.70;;;;;;4675282;30;20049;-69
2021/06/08 06:43:14;;;;;;;0.60;0.30;;;19.40;60.30;;;;;;4677355;30;20058;-71
2021/06/08 06:45:42;;;;;;;0.40;0.30;;;19.50;60.20;;;;;;4690375;30;20081;-70
2021/06/08 06:48:15;;;;;;;1.10;0.40;;;19.60;60.00;;;;;;4698242;30;20152;-70
2021/06/08 06:50:44;;;;;;;0.80;0.40;;;19.60;59.60;;;;;;4698898;30;20156;-70
2021/06/08 06:53:11;;;;;;;0.85;0.30;;;19.70;59.40;;;;;;4702439;30;20129;-70
2021/06/08 06:55:39;;;;;;;0.98;0.40;;;19.80;59.20;;;;;;4682671;30;20044;-70
2021/06/08 06:58:07;;;;;;;1.80;0.30;;;19.90;59.10;;;;;;4688053;30;20111;-69
2021/06/08 07:00:54;;;;;;;1.05;0.40;;;19.90;58.80;;;;;;4678626;30;20518;-69
2021/06/08 07:03:29;;;;;;;1.30;0.50;;;19.90;58.50;;;;;;4699058;30;20088;-70
2021/06/08 07:05:57;;;;;;;0.85;0.40;;;20.00;58.40;;;;;;4697302;30;20524;-71
2021/06/08 07:08:25;;;;;;;0.98;0.40;;;20.10;58.30;;;;;;4666935;30;20140;-70
2021/06/08 07:10:53;;;;;;;0.82;0.45;;;20.20;58.20;;;;;;4691159;30;20111;-69
2021/06/08 07:13:21;;;;;;;1.40;0.40;;;20.30;57.90;;;;;;4695870;30;20049;-72
2021/06/08 07:15:49;;;;;;;1.42;0.40;;;20.40;57.70;;;;;;4699290;30;20392;-72
2021/06/08 07:18:17;;;;;;;2.15;0.57;;;20.40;57.60;;;;;;4683342;30;20064;-72
2021/06/08 07:20:45;;;;;;;0.93;0.40;;;20.50;57.60;;;;;;4654852;30;20518;-71
2021/06/08 07:23:16;;;;;;;0.60;0.30;;;20.60;57.40;;;;;;4683069;30;20050;-69
2021/06/08 07:25:43;;;;;;;0.85;0.40;;;20.70;57.10;;;;;;4665587;30;20069;-69
2021/06/08 07:28:11;;;;;;;0.75;0.40;;;20.80;57.10;;;;;;4697696;30;20076;-69
2021/06/08 07:30:42;;;;;;;1.63;0.50;;;20.80;57.00;;;;;;4697872;30;20050;-69
2021/06/08 07:33:09;;;;;;;0.77;0.40;;;20.90;56.90;;;;;;4682491;30;20377;-69
2021/06/08 07:36:00;;;;;;;0.90;0.30;;;21.00;56.80;;;;;;4697603;30;20049;-69
2021/06/08 07:38:36;;;;;;;1.05;0.40;;;21.20;56.60;;;;;;4698017;30;20069;-69
2021/06/08 07:41:09;;;;;;;1.35;0.40;;;21.30;56.40;;;;;;4680540;30;20136;-69
2021/06/08 07:43:43;;;;;;;0.98;0.55;;;21.30;56.10;;;;;;4681784;30;20087;-69
2021/06/08 07:46:18;;;;;;;1.48;0.60;;;21.40;56.10;;;;;;4697705;30;20116;-69
2021/06/08 07:48:51;;;;;;;1.90;0.50;;;21.40;56.00;;;;;;4697978;30;20103;-69
2021/06/08 07:51:19;;;;;;;1.20;0.70;;;21.50;56.00;;;;;;4681028;30;20042;-69
2021/06/08 07:53:47;;;;;;;2.05;0.60;;;21.50;55.90;;;;;;4682640;30;20515;-70
2021/06/08 07:56:14;;;;;;;1.65;0.52;;;21.60;55.80;;;;;;4697889;30;20050;-70
2021/06/08 07:58:41;;;;;;;0.95;0.55;;;21.70;55.80;;;;;;4698780;30;20049;-69
2021/06/08 08:01:09;;;;;;;1.73;0.60;;;21.80;55.70;;;;;;4696540;30;20052;-69
2021/06/08 08:03:42;;;;;;;1.60;0.77;;;21.90;55.70;;;;;;4698407;30;20045;-69
2021/06/08 08:06:12;;;;;;;1.10;0.55;;;21.90;55.50;;;;;;4681486;30;20111;-69
2021/06/08 08:08:41;;;;;;;1.25;0.60;;;22.00;55.50;;;;;;4683055;30;20041;-69
2021/06/08 08:11:17;;;;;;;2.60;0.80;;;22.10;55.40;;;;;;4698129;30;20054;-69
2021/06/08 08:13:47;;;;;;;2.33;1.17;;;22.20;55.30;;;;;;4682197;30;20053;-69
2021/06/08 08:16:16;;;;;;;2.50;1.08;;;22.20;54.80;;;;;;4697232;30;20132;-69
2021/06/08 08:18:46;;;;;;;2.45;0.80;;;22.20;55.00;;;;;;4697630;30;20049;-69
2021/06/08 08:21:16;;;;;;;2.22;0.93;;;22.30;54.80;;;;;;4652532;30;20065;-69
2021/06/08 08:23:45;;;;;;;3.40;0.80;;;22.40;54.70;;;;;;4697759;30;20061;-69
2021/06/08 08:26:12;;;;;;;1.50;0.63;;;22.50;54.70;;;;;;4695929;30;20132;-69
2021/06/08 08:28:42;;;;;;;1.95;0.70;;;22.60;54.70;;;;;;4688628;30;20049;-71
2021/06/08 08:31:15;;;;;;;1.27;0.88;;;22.70;54.50;;;;;;4697941;30;20191;-70
2021/06/08 08:33:44;;;;;;;2.40;0.70;;;22.70;54.40;;;;;;4703375;30;20041;-69
2021/06/08 08:36:12;;;;;;;2.55;0.90;;;22.80;54.40;;;;;;4696700;30;20057;-69
2021/06/08 08:38:39;;;;;;;1.50;0.82;;;22.90;54.40;;;;;;4671297;30;20042;-70
2021/06/08 08:41:07;;;;;;;2.00;1.00;;;23.00;54.30;;;;;;4699796;30;21589;-71
2021/06/08 08:43:48;;;;;;;1.73;0.93;;;23.10;54.00;;;;;;4683752;30;20387;-70
2021/06/08 08:46:16;;;;;;;1.05;0.57;;;23.00;53.90;;;;;;4700978;30;20057;-70
2021/06/08 08:48:45;;;;;;;1.80;0.80;;;23.00;54.00;;;;;;4667806;30;20596;-70
2021/06/08 08:51:14;;;;;;;1.65;0.95;;;23.10;54.00;;;;;;4684575;30;20128;-70
2021/06/08 08:53:44;;;;;;;2.25;0.95;;;23.30;53.90;;;;;;4702640;30;20041;-74
2021/06/08 08:56:28;;;;;;;1.60;0.85;;;23.40;53.80;;;;;;4677236;30;20450;-73
2021/06/08 08:58:56;;;;;;;2.58;1.00;;;23.50;53.70;;;;;;4702963;30;20049;-74
2021/06/08 09:01:23;;;;;;;1.73;0.88;;;23.60;53.60;;;;;;4702470;30;20077;-74
2021/06/08 09:03:51;;;;;;;1.48;0.90;;;23.70;53.40;;;;;;4686912;30;20157;-73
2021/06/08 09:06:18;;;;;;;2.13;0.90;;;23.70;53.20;;;;;;4691964;30;20126;-73
2021/06/08 09:08:45;;;;;;;1.60;0.98;;;23.80;53.10;;;;;;4678831;30;20054;-73
2021/06/08 09:11:13;;;;;;;1.92;1.00;;;23.90;53.10;;;;;;4687009;30;20057;-73
2021/06/08 09:13:41;;;;;;;1.80;0.90;;;23.90;53.00;;;;;;4703218;30;20048;-74
2021/06/08 09:16:10;;;;;;;2.28;0.90;;;24.00;52.90;;;;;;4698277;30;20499;-74
2021/06/08 09:18:38;;;;;;;3.17;1.10;;;24.00;52.80;;;;;;4707676;30;20467;-74
2021/06/08 09:21:21;;;;;;;1.70;0.90;;;24.20;52.90;;;;;;4686390;30;20503;-74
2021/06/08 09:23:49;;;;;;;1.77;0.85;;;24.30;52.80;;;;;;4689595;30;20045;-74
2021/06/08 09:26:16;;;;;;;2.10;1.17;;;24.30;52.80;;;;;;4700046;30;20424;-74
2021/06/08 09:28:45;;;;;;;2.38;1.05;;;24.40;52.60;;;;;;4686308;30;20057;-74
2021/06/08 09:31:25;;;;;;;1.60;0.82;;;24.50;52.60;;;;;;4707102;30;20133;-74
2021/06/08 09:33:57;;;;;;;1.80;0.80;;;24.60;52.40;;;;;;4687277;30;20698;-74
2021/06/08 09:36:28;;;;;;;1.70;0.68;;;24.60;52.30;;;;;;4701655;30;20046;-73
2021/06/08 09:38:57;;;;;;;3.13;1.23;;;24.70;52.20;;;;;;4702237;30;20135;-73
2021/06/08 09:41:51;;;;;;;1.98;1.10;;;24.80;52.20;;;;;;4686922;30;20049;-74
2021/06/08 09:44:20;;;;;;;1.77;0.80;;;24.90;52.00;;;;;;4701708;30;20054;-75
2021/06/08 09:46:55;;;;;;;2.47;1.17;;;25.00;52.10;;;;;;4702294;30;20065;-75
2021/06/08 09:49:31;;;;;;;1.65;1.08;;;25.10;51.80;;;;;;4701712;30;20104;-75
2021/06/08 09:52:07;;;;;;;1.83;0.95;;;25.10;51.70;;;;;;4705534;30;20057;-75
2021/06/08 09:54:57;;;;;;;1.67;0.70;;;25.20;51.70;;;;;;4686594;30;20096;-78
2021/06/08 09:57:26;;;;;;;1.63;0.98;;;25.30;51.50;;;;;;4704302;30;20100;-77
2021/06/08 09:59:57;;;;;;;2.13;1.10;;;25.40;51.50;;;;;;4708248;30;20045;-77
2021/06/08 10:02:55;;;;;;;1.38;0.73;;;25.50;51.20;;;;;;4701884;30;20053;-79
2021/06/08 10:05:27;;;;;;;1.52;0.75;;;25.50;50.90;;;;;;4705987;30;20045;-78
2021/06/08 10:08:00;;;;;;;1.17;0.63;;;25.50;50.80;;;;;;4698183;30;20058;-74
2021/06/08 10:10:46;;;;;;;1.90;0.90;;;25.60;50.80;;;;;;4701068;30;20073;-73
2021/06/08 10:13:19;;;;;;;2.13;0.98;;;25.70;50.60;;;;;;4700134;30;20042;-74
2021/06/08 10:15:59;;;;;;;2.72;1.02;;;25.70;50.50;;;;;;4688706;30;20128;-72
2021/06/08 10:18:39;;;;;;;2.08;0.73;;;25.80;50.40;;;;;;4700558;30;20053;-74
2021/06/08 10:21:06;;;;;;;1.20;0.73;;;25.80;50.40;;;;;;4701506;30;20435;-77
2021/06/08 10:23:34;;;;;;;2.40;1.20;;;25.80;50.20;;;;;;4676487;30;20116;-78
2021/06/08 10:26:08;;;;;;;2.92;1.05;;;25.90;50.00;;;;;;4679743;30;20143;-79
2021/06/08 10:28:36;;;;;;;1.98;1.15;;;26.00;49.90;;;;;;4690865;30;20597;-78
2021/06/08 10:31:04;;;;;;;1.77;0.95;;;25.90;49.80;;;;;;4701157;30;20050;-78
2021/06/08 10:33:51;;;;;;;1.42;0.85;;;25.90;49.90;;;;;;4680073;30;20137;-78
2021/06/08 10:36:27;;;;;;;2.22;1.10;;;26.00;49.80;;;;;;4701802;30;20061;-77
2021/06/08 10:38:54;;;;;;;1.80;1.00;;;26.10;49.80;;;;;;4687054;30;20072;-76
2021/06/08 10:41:21;;;;;;;1.60;0.98;;;26.10;49.60;;;;;;4688718;30;20081;-77
2021/06/08 10:43:48;;;;;;;1.63;0.88;;;26.10;49.60;;;;;;4698114;30;20057;-77
2021/06/08 10:46:29;;;;;;;1.52;1.05;;;26.20;49.40;;;;;;4692875;30;20057;-78
2021/06/08 10:48:56;;;;;;;1.87;0.90;;;26.20;49.30;;;;;;4701928;30;20380;-77
2021/06/08 10:51:24;;;;;;;1.52;1.08;;;26.30;49.30;;;;;;4686901;30;20049;-78
2021/06/08 10:53:53;;;;;;;2.10;1.20;;;26.30;49.10;;;;;;4697662;30;20580;-77
2021/06/08 10:56:32;;;;;;;3.83;1.70;;;26.40;48.90;;;;;;4700930;30;20096;-76
2021/06/08 10:59:10;;;;;;;2.45;1.40;;;26.50;48.90;;;;;;4701378;30;20419;-75
2021/06/08 11:01:41;;;;;;;1.85;0.85;;;26.50;48.70;;;;;;4694317;30;20058;-75
2021/06/08 11:04:23;;;;;;;2.30;1.55;;;26.50;48.80;;;;;;4671373;30;20140;-75
2021/06/08 11:06:53;;;;;;;3.25;1.48;;;26.60;48.50;;;;;;4694307;30;20057;-75
2021/06/08 11:09:23;;;;;;;2.42;1.35;;;26.50;48.30;;;;;;4701046;30;20065;-75
2021/06/08 11:11:59;;;;;;;2.15;1.00;;;26.60;48.60;;;;;;4687153;30;20050;-76
2021/06/08 11:14:38;;;;;;;1.73;1.05;;;26.70;48.50;;;;;;4687507;30;20666;-75
2021/06/08 11:17:14;;;;;;;2.50;1.05;;;26.90;48.20;;;;;;4684939;30;20041;-75
2021/06/08 11:19:56;;;;;;;2.50;1.35;;;27.00;47.90;;;;;;4699475;30;20111;-75
2021/06/08 11:22:46;;;;;;;2.28;1.10;;;27.00;47.70;;;;;;4703448;30;20045;-75
2021/06/08 11:25:38;;;;;;;1.88;1.05;;;27.10;47.80;;;;;;4687365;30;20529;-75
2021/06/08 11:28:08;;;;;;;2.40;1.27;;;27.30;47.70;;;;;;4696981;30;20137;-75
2021/06/08 11:30:41;;;;;;;2.55;1.58;;;27.50;47.50;;;;;;4689488;30;20049;-75
2021/06/08 11:33:35;;;;;;;2.38;1.20;;;27.60;47.00;;;;;;4683649;30;20059;-75
2021/06/08 11:36:22;;;;;;;2.20;1.25;;;27.80;46.90;;;;;;4687574;30;20088;-75
2021/06/08 11:38:50;;;;;;;2.13;1.48;;;27.90;46.70;;;;;;4688926;30;20073;-74
2021/06/08 11:41:18;;;;;;;2.28;1.27;;;28.10;46.80;;;;;;4699043;30;20072;-75
2021/06/08 11:43:47;;;;;;;1.67;1.00;;;28.20;46.40;;;;;;4672563;30;20054;-74
2021/06/08 11:46:29;;;;;;;2.15;1.10;;;28.30;46.20;;;;;;4704531;30;20057;-77
2021/06/08 11:49:04;;;;;;;2.17;1.48;;;28.40;45.90;;;;;;4705818;30;20049;-76
2021/06/08 11:51:37;;;;;;;2.25;1.60;;;28.20;45.90;;;;;;4712217;30;20547;-76
2021/06/08 11:54:36;;;;;;;2.10;1.40;;;28.30;45.80;;;;;;4694645;30;20408;-76
2021/06/08 11:57:05;;;;;;;2.38;1.50;;;28.50;45.70;;;;;;4700544;30;20045;-76
2021/06/08 11:59:44;;;;;;;3.17;1.60;;;28.20;45.90;;;;;;4699440;30;20764;-76
2021/06/08 12:02:34;;;;;;;2.80;1.88;;;28.00;46.20;;;;;;4708307;30;20119;-74
2021/06/08 12:05:22;;;;;;;2.60;1.65;;;27.80;46.50;;;;;;4689102;30;20068;-76
2021/06/08 12:08:02;;;;;;;2.55;1.50;;;27.90;46.30;;;;;;4688035;30;20049;-77
2021/06/08 12:10:36;;;;;;;5.03;2.05;;;28.20;46.20;;;;;;4703814;30;20049;-77
2021/06/08 12:13:12;;;;;;;4.32;2.13;;;28.70;45.40;;;;;;4697443;30;20057;-77
2021/06/08 12:15:47;;;;;;;3.80;1.88;;;29.00;44.90;;;;;;4687177;30;20166;-78
2021/06/08 12:18:18;;;;;;;2.38;1.50;;;29.50;44.40;;;;;;4692491;30;20048;-78
2021/06/08 12:20:54;;;;;;;3.55;2.40;;;29.30;44.60;;;;;;4693123;30;20045;-78
2021/06/08 12:23:25;;;;;;;3.05;1.88;;;29.90;44.10;;;;;;4686470;30;20088;-76
2021/06/08 12:25:52;;;;;;;3.05;1.85;;;30.20;43.50;;;;;;4704190;30;20061;-76
2021/06/08 12:28:19;;;;;;;3.60;1.70;;;29.70;43.80;;;;;;4699156;30;20063;-76
2021/06/08 12:30:47;;;;;;;2.17;1.23;;;29.50;44.40;;;;;;4677501;30;20053;-77
2021/06/08 12:33:16;;;;;;;2.17;1.25;;;30.10;43.90;;;;;;4677738;30;20446;-78
2021/06/08 12:35:45;;;;;;;3.20;1.90;;;30.10;43.40;;;;;;4693030;30;20189;-78
2021/06/08 12:38:14;;;;;;;2.65;1.58;;;30.30;43.40;;;;;;4689671;30;20499;-76
2021/06/08 12:40:43;;;;;;;2.30;1.35;;;30.90;42.90;;;;;;4707963;30;20045;-81
2021/06/08 12:43:11;;;;;;;3.17;1.85;;;31.50;42.40;;;;;;4698087;30;20053;-80
2021/06/08 12:45:38;;;;;;;2.20;1.42;;;31.80;41.80;;;;;;4681756;30;20128;-81
2021/06/08 12:48:20;;;;;;;2.70;1.92;;;32.00;41.30;;;;;;4697630;30;20057;-79
2021/06/08 12:50:47;;;;;;;2.58;2.00;;;32.40;41.10;;;;;;4697446;30;20052;-80
2021/06/08 12:53:23;;;;;;;2.60;1.77;;;32.60;40.80;;;;;;4701668;30;20061;-77
2021/06/08 12:55:52;;;;;;;3.65;1.73;;;32.90;40.40;;;;;;4690174;30;20045;-76
2021/06/08 12:58:36;;;;;;;1.83;0.98;;;33.10;40.20;;;;;;4704448;30;20766;-76
2021/06/08 13:01:10;;;;;;;1.60;1.20;;;33.40;40.10;;;;;;4703820;30;20073;-78
2021/06/08 13:03:40;;;;;;;1.88;1.33;;;33.90;39.80;;;;;;4697355;30;20049;-78
2021/06/08 13:06:09;;;;;;;2.90;1.50;;;33.90;39.20;;;;;;4703505;30;20050;-78
2021/06/08 13:08:40;;;;;;;2.13;1.40;;;33.20;39.50;;;;;;4673400;30;20211;-76
2021/06/08 13:11:19;;;;;;;2.35;1.40;;;32.20;40.10;;;;;;4706548;30;20095;-78